Time;durP1;ratioP1;P1;durP2;ratioP2;P2;SDS_P1;SDS_P2;PMS_P1;PMS_P2;Temp;Humidity;BMP_temperature;BMP_pressure;BME280_temperature;BME280_humidity;BME280_pressure;Samples;Min_cycle;Max_cycle;Signal;HPM_P1;HPM_P2
2023/03/21 00:01:33;;;;;;;38.23;30.90;;;;;;;;;;5054469;28;20271;-61
2023/03/21 00:03:59;;;;;;;38.20;30.20;;;;;;;;;;5054716;28;20196;-61
2023/03/21 00:06:26;;;;;;;40.73;30.33;;;;;;;;;;5054491;28;20254;-60
2023/03/21 00:08:52;;;;;;;40.03;29.80;;;;;;;;;;5054671;28;20200;-61
2023/03/21 00:11:18;;;;;;;34.10;29.80;;;;;;;;;;5054336;28;20226;-60
2023/03/21 00:13:44;;;;;;;39.50;32.00;;;;;;;;;;5054176;28;20258;-60
2023/03/21 00:16:14;;;;;;;39.83;30.90;;;;;;;;;;5054652;28;20197;-60
2023/03/21 00:18:40;;;;;;;42.93;33.77;;;;;;;;;;5054681;28;20578;-60
2023/03/21 00:21:07;;;;;;;45.50;33.33;;;;;;;;;;5054366;28;20228;-62
2023/03/21 00:23:35;;;;;;;40.37;34.10;;;;;;;;;;5054317;28;20204;-61
2023/03/21 00:26:01;;;;;;;40.60;33.97;;;;;;;;;;5054112;28;20196;-62
2023/03/21 00:28:27;;;;;;;47.03;33.80;;;;;;;;;;5054110;28;20551;-61
2023/03/21 00:30:56;;;;;;;40.23;33.87;;;;;;;;;;5053542;28;20202;-62
2023/03/21 00:33:22;;;;;;;43.63;34.33;;;;;;;;;;5053599;28;20255;-62
2023/03/21 00:35:50;;;;;;;43.87;33.53;;;;;;;;;;5054003;28;20567;-61
2023/03/21 00:38:17;;;;;;;45.33;33.53;;;;;;;;;;5050240;28;20208;-61
2023/03/21 00:40:44;;;;;;;47.43;35.20;;;;;;;;;;5054106;28;20227;-65
2023/03/21 00:43:16;;;;;;;42.43;33.93;;;;;;;;;;5053933;28;20216;-60
2023/03/21 00:45:42;;;;;;;48.57;34.83;;;;;;;;;;5070972;28;20239;-62
2023/03/21 00:48:08;;;;;;;43.63;34.17;;;;;;;;;;5073990;28;20195;-61
2023/03/21 00:50:35;;;;;;;42.47;34.20;;;;;;;;;;5074008;28;20222;-61
2023/03/21 00:53:01;;;;;;;41.30;33.17;;;;;;;;;;5073918;28;20203;-60
2023/03/21 00:55:27;;;;;;;51.03;34.80;;;;;;;;;;5073697;28;20291;-63
2023/03/21 00:57:54;;;;;;;45.57;33.03;;;;;;;;;;5073802;28;20283;-62
2023/03/21 01:00:21;;;;;;;48.83;34.73;;;;;;;;;;5073578;28;20244;-63
2023/03/21 01:02:56;;;;;;;43.77;33.90;;;;;;;;;;5073626;28;20979;-63
2023/03/21 01:06:01;;;;;;;39.80;31.27;;;;;;;;;;5073633;28;20891;-63
2023/03/21 01:08:08;;;;;;;42.03;32.53;;;;;;;;;;5073500;28;20208;-63
2023/03/21 01:10:37;;;;;;;41.23;32.60;;;;;;;;;;5073513;28;20289;-63
2023/03/21 01:13:04;;;;;;;39.00;30.83;;;;;;;;;;5073484;28;20200;-63
2023/03/21 01:15:30;;;;;;;40.70;29.33;;;;;;;;;;5073318;28;20245;-63
2023/03/21 01:17:56;;;;;;;36.17;30.27;;;;;;;;;;5073294;28;20203;-63
2023/03/21 01:20:22;;;;;;;45.60;32.60;;;;;;;;;;5072961;28;20196;-63
2023/03/21 01:22:48;;;;;;;41.33;30.23;;;;;;;;;;5072844;28;20255;-62
2023/03/21 01:25:14;;;;;;;44.00;30.60;;;;;;;;;;5072820;28;20227;-63
2023/03/21 01:27:41;;;;;;;43.00;30.87;;;;;;;;;;5073061;28;20206;-62
2023/03/21 01:30:09;;;;;;;40.67;31.77;;;;;;;;;;5072844;28;20184;-62
2023/03/21 01:32:35;;;;;;;39.33;29.90;;;;;;;;;;5072835;28;20324;-62
2023/03/21 01:35:01;;;;;;;43.33;31.03;;;;;;;;;;5072825;28;20207;-62
2023/03/21 01:37:27;;;;;;;42.20;30.10;;;;;;;;;;5072634;28;20195;-62
2023/03/21 01:39:54;;;;;;;39.00;30.03;;;;;;;;;;5072839;28;20215;-62
2023/03/21 01:42:20;;;;;;;43.80;31.87;;;;;;;;;;5072428;28;20590;-63
2023/03/21 01:44:53;;;;;;;45.80;32.40;;;;;;;;;;5072700;28;20515;-62
2023/03/21 01:47:20;;;;;;;44.30;31.93;;;;;;;;;;5072444;28;20286;-62
2023/03/21 01:49:47;;;;;;;46.87;32.67;;;;;;;;;;5071798;28;20207;-63
2023/03/21 01:52:15;;;;;;;40.17;31.57;;;;;;;;;;5072392;28;20653;-63
2023/03/21 01:54:41;;;;;;;45.53;32.13;;;;;;;;;;5072581;28;20610;-63
2023/03/21 01:57:09;;;;;;;43.93;31.93;;;;;;;;;;5072448;28;20278;-63
2023/03/21 01:59:37;;;;;;;45.50;33.67;;;;;;;;;;5072364;28;20642;-62
2023/03/21 02:02:08;;;;;;;45.97;31.33;;;;;;;;;;5072234;28;20728;-62
2023/03/21 02:04:37;;;;;;;44.50;31.80;;;;;;;;;;5072277;28;20286;-63
2023/03/21 02:07:05;;;;;;;43.57;32.10;;;;;;;;;;5072181;28;20214;-63
2023/03/21 02:09:32;;;;;;;44.17;32.50;;;;;;;;;;5072100;28;20195;-63
2023/03/21 02:11:59;;;;;;;42.20;31.03;;;;;;;;;;5072198;28;20203;-63
2023/03/21 02:14:25;;;;;;;46.47;31.70;;;;;;;;;;5072179;28;20203;-63
2023/03/21 02:16:55;;;;;;;43.90;30.73;;;;;;;;;;5072086;28;20246;-63
2023/03/21 02:19:32;;;;;;;47.47;32.40;;;;;;;;;;5072207;28;20191;-63
2023/03/21 02:22:09;;;;;;;43.73;30.90;;;;;;;;;;5071704;28;20564;-63
2023/03/21 02:24:52;;;;;;;41.57;29.77;;;;;;;;;;5071854;28;20207;-63
2023/03/21 02:27:22;;;;;;;35.83;28.60;;;;;;;;;;5071919;28;20266;-63
2023/03/21 02:30:03;;;;;;;45.03;31.10;;;;;;;;;;5071890;28;20620;-63
2023/03/21 02:32:36;;;;;;;40.73;30.90;;;;;;;;;;5071681;28;20562;-63
2023/03/21 02:35:17;;;;;;;43.17;30.73;;;;;;;;;;5071828;28;20199;-63
2023/03/21 02:37:46;;;;;;;45.17;30.40;;;;;;;;;;5069376;28;20617;-63
2023/03/21 02:40:15;;;;;;;45.73;31.50;;;;;;;;;;5071688;28;20268;-62
2023/03/21 02:42:45;;;;;;;44.70;30.57;;;;;;;;;;5071902;28;20220;-62
2023/03/21 02:45:16;;;;;;;44.00;31.17;;;;;;;;;;5071505;28;20248;-62
2023/03/21 02:47:44;;;;;;;42.10;30.03;;;;;;;;;;5071702;28;20227;-63
2023/03/21 02:50:14;;;;;;;38.87;29.80;;;;;;;;;;5071593;28;20211;-63
2023/03/21 02:52:41;;;;;;;40.10;29.43;;;;;;;;;;5071935;28;20201;-63
2023/03/21 02:55:12;;;;;;;37.10;28.73;;;;;;;;;;5071648;28;20313;-63
2023/03/21 02:57:39;;;;;;;40.13;29.57;;;;;;;;;;5071612;28;20203;-63
2023/03/21 03:00:10;;;;;;;39.57;30.00;;;;;;;;;;5071446;28;20249;-63
2023/03/21 03:02:38;;;;;;;39.97;30.67;;;;;;;;;;5071506;28;20231;-63
2023/03/21 03:05:12;;;;;;;41.77;29.67;;;;;;;;;;5071457;28;20203;-63
2023/03/21 03:07:40;;;;;;;37.97;30.30;;;;;;;;;;5071694;28;20196;-64
2023/03/21 03:10:22;;;;;;;42.57;31.30;;;;;;;;;;5071419;28;20664;-64
2023/03/21 03:12:52;;;;;;;40.47;29.93;;;;;;;;;;5071471;28;20210;-64
2023/03/21 03:15:27;;;;;;;38.27;28.03;;;;;;;;;;5071233;28;20653;-63
2023/03/21 03:17:57;;;;;;;44.30;29.90;;;;;;;;;;5071672;28;20278;-63
2023/03/21 03:20:25;;;;;;;38.60;30.43;;;;;;;;;;5071284;28;20200;-64
2023/03/21 03:22:57;;;;;;;40.30;29.93;;;;;;;;;;5071342;28;20681;-63
2023/03/21 03:25:27;;;;;;;40.80;31.73;;;;;;;;;;5071328;28;20200;-64
2023/03/21 03:27:54;;;;;;;49.37;32.90;;;;;;;;;;5071339;28;20564;-63
2023/03/21 03:30:21;;;;;;;44.73;33.50;;;;;;;;;;5071160;28;20200;-64
2023/03/21 03:32:49;;;;;;;42.67;32.00;;;;;;;;;;5071245;28;20204;-64
2023/03/21 03:35:17;;;;;;;40.93;30.23;;;;;;;;;;5071261;28;20214;-63
2023/03/21 03:37:45;;;;;;;40.63;30.80;;;;;;;;;;5071259;28;20202;-64
2023/03/21 03:40:15;;;;;;;39.77;31.77;;;;;;;;;;5071208;28;20210;-64
2023/03/21 03:42:45;;;;;;;38.73;30.10;;;;;;;;;;5070987;28;20258;-64
2023/03/21 03:45:11;;;;;;;42.03;31.87;;;;;;;;;;5070898;28;20244;-63
2023/03/21 03:47:41;;;;;;;40.37;31.57;;;;;;;;;;5071281;28;20195;-64
2023/03/21 03:50:11;;;;;;;41.40;31.20;;;;;;;;;;5071026;28;20555;-64
2023/03/21 03:52:39;;;;;;;42.90;29.40;;;;;;;;;;5071142;28;20253;-63
2023/03/21 03:55:05;;;;;;;46.53;31.30;;;;;;;;;;5071163;28;20250;-63
2023/03/21 03:57:31;;;;;;;44.63;32.57;;;;;;;;;;5070806;28;20206;-63
2023/03/21 03:59:59;;;;;;;38.00;31.33;;;;;;;;;;5070976;28;20202;-63
2023/03/21 04:02:25;;;;;;;39.83;31.03;;;;;;;;;;5071013;28;20231;-63
2023/03/21 04:04:52;;;;;;;42.47;30.37;;;;;;;;;;5071166;28;20636;-63
2023/03/21 04:07:18;;;;;;;46.50;31.80;;;;;;;;;;5070751;28;20227;-63
2023/03/21 04:09:44;;;;;;;42.40;30.97;;;;;;;;;;5070997;28;20207;-63
2023/03/21 04:12:11;;;;;;;44.80;33.20;;;;;;;;;;5072679;28;20187;-63
2023/03/21 04:14:38;;;;;;;44.43;34.23;;;;;;;;;;5074569;28;20270;-63
2023/03/21 04:17:05;;;;;;;49.93;35.00;;;;;;;;;;5074569;28;20246;-63
2023/03/21 04:19:31;;;;;;;47.30;34.43;;;;;;;;;;5074298;28;20210;-63
2023/03/21 04:21:57;;;;;;;53.17;36.20;;;;;;;;;;5074202;28;20314;-63
2023/03/21 04:24:23;;;;;;;52.00;35.67;;;;;;;;;;5074315;28;20305;-63
2023/03/21 04:26:52;;;;;;;53.40;36.03;;;;;;;;;;5074155;28;20677;-63
2023/03/21 04:29:19;;;;;;;47.03;34.33;;;;;;;;;;5074214;28;20196;-63
2023/03/21 04:31:48;;;;;;;49.33;33.57;;;;;;;;;;5074283;28;20226;-63
2023/03/21 04:34:16;;;;;;;57.50;35.50;;;;;;;;;;5074256;28;20250;-63
2023/03/21 04:36:45;;;;;;;50.77;36.83;;;;;;;;;;5074100;28;20218;-63
2023/03/21 04:39:11;;;;;;;53.33;37.23;;;;;;;;;;5073985;28;20247;-63
2023/03/21 04:41:38;;;;;;;61.90;37.77;;;;;;;;;;5073953;28;20314;-62
2023/03/21 04:44:04;;;;;;;51.90;38.10;;;;;;;;;;5073935;28;20192;-63
2023/03/21 04:46:30;;;;;;;60.33;38.37;;;;;;;;;;5073612;28;20236;-62
2023/03/21 04:48:56;;;;;;;56.30;39.03;;;;;;;;;;5073950;28;20227;-62
2023/03/21 04:51:23;;;;;;;64.97;40.10;;;;;;;;;;5073622;28;20218;-62
2023/03/21 04:53:51;;;;;;;63.83;37.97;;;;;;;;;;5073765;28;20228;-62
2023/03/21 04:56:17;;;;;;;67.13;41.03;;;;;;;;;;5073546;28;20204;-62
2023/03/21 04:58:43;;;;;;;67.73;41.03;;;;;;;;;;5073502;28;20199;-62
2023/03/21 05:01:09;;;;;;;68.40;41.90;;;;;;;;;;5073540;28;20238;-62
2023/03/21 05:03:39;;;;;;;68.00;41.60;;;;;;;;;;5073356;28;20225;-62
2023/03/21 05:06:05;;;;;;;76.53;41.27;;;;;;;;;;5073418;28;20602;-62
2023/03/21 05:08:33;;;;;;;70.17;40.77;;;;;;;;;;5073245;28;20214;-62
2023/03/21 05:10:59;;;;;;;63.57;40.30;;;;;;;;;;5073430;28;20210;-62
2023/03/21 05:13:25;;;;;;;68.63;41.90;;;;;;;;;;5073341;28;20286;-62
2023/03/21 05:15:51;;;;;;;65.40;40.77;;;;;;;;;;5073356;28;20195;-63
2023/03/21 05:18:23;;;;;;;60.50;40.93;;;;;;;;;;5073149;28;20199;-63
2023/03/21 05:20:52;;;;;;;65.53;38.37;;;;;;;;;;5073083;28;20203;-63
2023/03/21 05:23:19;;;;;;;59.03;40.03;;;;;;;;;;5071835;28;20203;-63
2023/03/21 05:25:46;;;;;;;63.13;40.63;;;;;;;;;;5073174;28;20293;-63
2023/03/21 05:28:12;;;;;;;61.50;40.73;;;;;;;;;;5073097;28;20226;-63
2023/03/21 05:30:38;;;;;;;62.63;39.63;;;;;;;;;;5072998;28;20654;-62
2023/03/21 05:33:04;;;;;;;63.47;39.77;;;;;;;;;;5072884;28;20283;-63
2023/03/21 05:35:30;;;;;;;61.50;40.87;;;;;;;;;;5072743;28;20204;-63
2023/03/21 05:37:57;;;;;;;70.03;40.63;;;;;;;;;;5072915;28;20646;-63
2023/03/21 05:40:23;;;;;;;71.53;41.30;;;;;;;;;;5072820;28;20195;-65
2023/03/21 05:42:50;;;;;;;70.80;42.10;;;;;;;;;;5072561;28;20228;-64
2023/03/21 05:45:16;;;;;;;61.27;41.60;;;;;;;;;;5072338;28;20240;-64
2023/03/21 05:47:42;;;;;;;64.17;41.23;;;;;;;;;;5072508;28;20191;-64
2023/03/21 05:50:09;;;;;;;61.77;40.03;;;;;;;;;;5072622;28;20195;-64
2023/03/21 05:52:35;;;;;;;65.23;40.30;;;;;;;;;;5072376;28;20195;-64
2023/03/21 05:55:01;;;;;;;64.70;40.13;;;;;;;;;;5072403;28;20195;-65
2023/03/21 05:57:27;;;;;;;56.83;38.57;;;;;;;;;;5072423;28;20203;-65
2023/03/21 05:59:55;;;;;;;66.07;40.93;;;;;;;;;;5072591;28;20238;-65
2023/03/21 06:02:21;;;;;;;62.90;41.30;;;;;;;;;;5072141;28;20231;-66
2023/03/21 06:04:47;;;;;;;62.30;40.50;;;;;;;;;;5072214;28;20786;-66
2023/03/21 06:07:13;;;;;;;59.77;41.07;;;;;;;;;;5072161;28;20206;-66
2023/03/21 06:09:39;;;;;;;60.07;41.07;;;;;;;;;;5072207;28;20199;-66
2023/03/21 06:12:05;;;;;;;56.47;41.07;;;;;;;;;;5072304;28;20249;-66
2023/03/21 06:14:31;;;;;;;64.83;40.70;;;;;;;;;;5071888;28;20703;-65
2023/03/21 06:16:58;;;;;;;60.07;40.87;;;;;;;;;;5072002;28;20283;-64
2023/03/21 06:19:25;;;;;;;56.87;39.93;;;;;;;;;;5071848;28;20195;-64
2023/03/21 06:21:51;;;;;;;58.57;41.53;;;;;;;;;;5071702;28;20228;-63
2023/03/21 06:24:16;;;;;;;62.67;40.43;;;;;;;;;;5071706;28;20214;-65
2023/03/21 06:26:43;;;;;;;59.93;41.90;;;;;;;;;;5071797;28;20225;-63
2023/03/21 06:29:09;;;;;;;62.07;40.63;;;;;;;;;;5071942;28;20199;-63
2023/03/21 06:31:35;;;;;;;62.60;40.43;;;;;;;;;;5071694;28;20195;-64
2023/03/21 06:34:02;;;;;;;58.37;40.10;;;;;;;;;;5071223;28;20646;-64
2023/03/21 06:36:28;;;;;;;53.17;39.17;;;;;;;;;;5071664;28;20540;-64
2023/03/21 06:38:54;;;;;;;58.70;38.07;;;;;;;;;;5071953;28;20199;-64
2023/03/21 06:41:20;;;;;;;54.77;36.87;;;;;;;;;;5071437;28;20228;-64
2023/03/21 06:43:47;;;;;;;51.33;35.20;;;;;;;;;;5071535;28;20690;-63
2023/03/21 06:46:13;;;;;;;55.00;34.40;;;;;;;;;;5071363;28;20239;-64
2023/03/21 06:48:43;;;;;;;51.83;34.10;;;;;;;;;;5071508;28;20203;-63
2023/03/21 06:51:10;;;;;;;50.27;35.30;;;;;;;;;;5071615;28;20238;-63
2023/03/21 06:53:37;;;;;;;51.77;34.03;;;;;;;;;;5071611;28;20253;-63
2023/03/21 06:56:03;;;;;;;56.60;37.10;;;;;;;;;;5071486;28;20611;-63
2023/03/21 06:58:29;;;;;;;56.93;36.57;;;;;;;;;;5071417;28;20766;-63
2023/03/21 07:00:57;;;;;;;56.00;36.63;;;;;;;;;;5071568;28;20195;-63
2023/03/21 07:03:24;;;;;;;56.17;36.00;;;;;;;;;;5071451;28;20188;-63
2023/03/21 07:05:50;;;;;;;56.43;35.63;;;;;;;;;;5071448;28;20620;-63
2023/03/21 07:08:18;;;;;;;56.37;37.57;;;;;;;;;;5071389;28;20210;-63
2023/03/21 07:10:47;;;;;;;51.50;36.77;;;;;;;;;;5070889;28;20578;-64
2023/03/21 07:13:14;;;;;;;57.70;37.47;;;;;;;;;;5071323;28;20203;-63
2023/03/21 07:15:40;;;;;;;53.80;36.33;;;;;;;;;;5071084;28;20257;-64
2023/03/21 07:18:06;;;;;;;60.47;36.60;;;;;;;;;;5071408;28;20196;-64
2023/03/21 07:20:33;;;;;;;56.33;37.57;;;;;;;;;;5071077;28;20696;-64
2023/03/21 07:22:59;;;;;;;59.47;37.70;;;;;;;;;;5071325;28;20227;-64
2023/03/21 07:25:27;;;;;;;57.37;38.17;;;;;;;;;;5071228;28;20561;-64
2023/03/21 07:27:53;;;;;;;50.63;35.40;;;;;;;;;;5071257;28;20272;-64
2023/03/21 07:30:19;;;;;;;56.07;35.10;;;;;;;;;;5071223;28;20219;-64
2023/03/21 07:32:46;;;;;;;50.77;33.93;;;;;;;;;;5071111;28;20654;-64
2023/03/21 07:35:13;;;;;;;46.53;33.13;;;;;;;;;;5071162;28;20658;-63
2023/03/21 07:37:39;;;;;;;49.00;32.40;;;;;;;;;;5071251;28;20657;-63
2023/03/21 07:40:09;;;;;;;43.77;32.63;;;;;;;;;;5071252;28;20192;-63
2023/03/21 07:42:36;;;;;;;49.93;31.43;;;;;;;;;;5070887;28;20238;-62
2023/03/21 07:45:03;;;;;;;39.67;29.80;;;;;;;;;;5071021;28;20203;-63
2023/03/21 07:47:29;;;;;;;46.83;28.37;;;;;;;;;;5073354;28;20195;-62
2023/03/21 07:49:55;;;;;;;37.63;26.67;;;;;;;;;;5074885;28;20199;-58
2023/03/21 07:52:21;;;;;;;46.53;27.37;;;;;;;;;;5074919;28;20192;-59
2023/03/21 07:54:47;;;;;;;35.50;25.30;;;;;;;;;;5074467;28;20222;-60
2023/03/21 07:57:14;;;;;;;37.63;25.73;;;;;;;;;;5074748;28;20196;-58
2023/03/21 07:59:41;;;;;;;37.23;25.90;;;;;;;;;;5074896;28;20291;-59
2023/03/21 08:02:09;;;;;;;37.93;24.37;;;;;;;;;;5074707;28;20308;-58
2023/03/21 08:04:35;;;;;;;36.03;24.00;;;;;;;;;;5074507;28;20207;-59
2023/03/21 08:07:01;;;;;;;36.80;24.80;;;;;;;;;;5074418;28;20196;-57
2023/03/21 08:09:27;;;;;;;33.93;21.93;;;;;;;;;;5074360;28;20214;-58
2023/03/21 08:11:54;;;;;;;30.73;22.20;;;;;;;;;;5074613;28;20654;-57
2023/03/21 08:14:20;;;;;;;37.40;22.43;;;;;;;;;;5074274;28;20661;-58
2023/03/21 08:16:47;;;;;;;31.00;21.67;;;;;;;;;;5074311;28;20916;-57
2023/03/21 08:19:13;;;;;;;29.43;20.00;;;;;;;;;;5074000;28;20303;-59
2023/03/21 08:21:39;;;;;;;29.63;20.60;;;;;;;;;;5074520;28;20219;-59
2023/03/21 08:24:06;;;;;;;32.33;20.77;;;;;;;;;;5074413;28;20321;-59
2023/03/21 08:26:32;;;;;;;32.57;20.07;;;;;;;;;;5074080;28;20246;-60
2023/03/21 08:28:59;;;;;;;27.30;19.33;;;;;;;;;;5074090;28;20207;-59
2023/03/21 08:31:25;;;;;;;30.17;19.30;;;;;;;;;;5073974;28;20195;-57
2023/03/21 08:33:53;;;;;;;30.23;19.23;;;;;;;;;;5073533;28;20191;-57
2023/03/21 08:36:20;;;;;;;23.90;17.63;;;;;;;;;;5073923;28;20207;-58
2023/03/21 08:38:47;;;;;;;29.03;17.33;;;;;;;;;;5074267;28;20187;-57
2023/03/21 08:41:13;;;;;;;27.20;16.57;;;;;;;;;;5073928;28;20589;-58
2023/03/21 08:43:39;;;;;;;29.53;18.23;;;;;;;;;;5073925;28;20223;-57
2023/03/21 08:46:05;;;;;;;24.73;18.20;;;;;;;;;;5073996;28;20231;-57
2023/03/21 08:48:31;;;;;;;22.23;17.47;;;;;;;;;;5073806;28;20192;-57
2023/03/21 08:51:00;;;;;;;24.23;18.50;;;;;;;;;;5073822;28;20244;-57
2023/03/21 08:53:26;;;;;;;24.87;17.50;;;;;;;;;;5073283;28;20226;-57
2023/03/21 08:55:52;;;;;;;23.80;17.73;;;;;;;;;;5071834;28;20195;-57
2023/03/21 08:58:18;;;;;;;27.93;19.43;;;;;;;;;;5072780;28;20205;-56
2023/03/21 09:00:45;;;;;;;27.47;19.07;;;;;;;;;;5073234;28;20248;-56
2023/03/21 09:03:11;;;;;;;25.13;19.13;;;;;;;;;;5073332;28;20321;-57
2023/03/21 09:05:37;;;;;;;26.83;18.47;;;;;;;;;;5073181;28;20561;-57
2023/03/21 09:08:04;;;;;;;28.07;18.43;;;;;;;;;;5073338;28;20215;-57
2023/03/21 09:10:30;;;;;;;27.50;18.73;;;;;;;;;;5072949;28;20760;-56
2023/03/21 09:12:57;;;;;;;18.97;16.30;;;;;;;;;;5073126;28;20286;-57
2023/03/21 09:15:24;;;;;;;25.60;17.53;;;;;;;;;;5073169;28;20239;-57
2023/03/21 09:17:51;;;;;;;22.83;17.70;;;;;;;;;;5073060;28;20192;-57
2023/03/21 09:20:19;;;;;;;24.83;18.47;;;;;;;;;;5072908;28;20196;-57
2023/03/21 09:22:46;;;;;;;22.80;18.17;;;;;;;;;;5072819;28;20235;-57
2023/03/21 09:25:14;;;;;;;22.90;18.23;;;;;;;;;;5072905;28;20203;-57
2023/03/21 09:27:41;;;;;;;24.63;19.37;;;;;;;;;;5072843;28;20208;-57
2023/03/21 09:30:08;;;;;;;28.63;20.00;;;;;;;;;;5072936;28;20204;-57
2023/03/21 09:32:35;;;;;;;26.10;20.57;;;;;;;;;;5072498;28;20257;-57
2023/03/21 09:35:01;;;;;;;25.50;19.43;;;;;;;;;;5072764;28;20199;-57
2023/03/21 09:37:27;;;;;;;28.00;20.10;;;;;;;;;;5072680;28;20196;-58
2023/03/21 09:39:55;;;;;;;29.50;18.67;;;;;;;;;;5072796;28;20277;-58
2023/03/21 09:42:30;;;;;;;26.10;19.53;;;;;;;;;;5072353;28;20644;-58
2023/03/21 09:45:04;;;;;;;24.80;18.83;;;;;;;;;;5072398;28;20231;-57
2023/03/21 09:47:33;;;;;;;25.87;18.17;;;;;;;;;;5072245;28;20234;-58
2023/03/21 09:50:02;;;;;;;24.67;18.07;;;;;;;;;;5072184;28;20283;-58
2023/03/21 09:52:32;;;;;;;25.97;17.90;;;;;;;;;;5072355;28;20278;-58
2023/03/21 09:54:59;;;;;;;23.23;17.30;;;;;;;;;;5072236;28;20199;-58
2023/03/21 09:57:31;;;;;;;26.87;17.87;;;;;;;;;;5072284;28;20199;-58
2023/03/21 10:00:07;;;;;;;27.30;18.53;;;;;;;;;;5072135;28;20208;-58
2023/03/21 10:02:37;;;;;;;24.03;18.20;;;;;;;;;;5071759;28;20247;-59
2023/03/21 10:05:10;;;;;;;22.33;17.53;;;;;;;;;;5071946;28;20199;-59
2023/03/21 10:07:38;;;;;;;22.87;16.27;;;;;;;;;;5071736;28;20621;-59
2023/03/21 10:10:06;;;;;;;20.43;15.73;;;;;;;;;;5071636;28;20207;-59
2023/03/21 10:12:33;;;;;;;21.33;16.57;;;;;;;;;;5072158;28;20198;-60
2023/03/21 10:15:00;;;;;;;19.57;15.93;;;;;;;;;;5072095;28;20899;-58
2023/03/21 10:17:29;;;;;;;19.63;16.37;;;;;;;;;;5071883;28;20206;-58
2023/03/21 10:19:58;;;;;;;20.57;15.30;;;;;;;;;;5072020;28;20543;-58
2023/03/21 10:22:24;;;;;;;26.67;16.73;;;;;;;;;;5071948;28;20219;-56
2023/03/21 10:24:50;;;;;;;23.57;16.13;;;;;;;;;;5071935;28;20207;-54
2023/03/21 10:27:16;;;;;;;24.90;16.70;;;;;;;;;;5072022;28;20203;-54
2023/03/21 10:29:44;;;;;;;20.57;16.20;;;;;;;;;;5071418;28;20202;-55
2023/03/21 10:32:11;;;;;;;23.77;16.77;;;;;;;;;;5071971;28;20196;-59
2023/03/21 10:34:39;;;;;;;22.03;15.77;;;;;;;;;;5071769;28;20229;-59
2023/03/21 10:37:06;;;;;;;23.63;16.20;;;;;;;;;;5071686;28;20615;-60
2023/03/21 10:39:33;;;;;;;26.47;16.60;;;;;;;;;;5071897;28;20196;-61
2023/03/21 10:41:59;;;;;;;20.57;16.77;;;;;;;;;;5071793;28;20317;-61
2023/03/21 10:44:29;;;;;;;23.03;18.10;;;;;;;;;;5072064;28;20199;-60
2023/03/21 10:46:57;;;;;;;27.17;17.63;;;;;;;;;;5072010;28;20238;-60
2023/03/21 10:49:24;;;;;;;22.10;16.73;;;;;;;;;;5071940;28;20196;-60
2023/03/21 10:51:51;;;;;;;22.27;16.73;;;;;;;;;;5072132;28;20200;-60
2023/03/21 10:54:18;;;;;;;23.90;17.23;;;;;;;;;;5071903;28;20200;-60
2023/03/21 10:56:46;;;;;;;21.50;17.10;;;;;;;;;;5071693;28;20253;-60
2023/03/21 10:59:16;;;;;;;19.10;15.60;;;;;;;;;;5071887;28;20199;-60
2023/03/21 11:01:43;;;;;;;22.93;17.03;;;;;;;;;;5071554;28;20231;-60
2023/03/21 11:04:14;;;;;;;22.23;17.67;;;;;;;;;;5071962;28;20206;-60
2023/03/21 11:06:41;;;;;;;23.27;17.43;;;;;;;;;;5071797;28;20207;-62
2023/03/21 11:09:08;;;;;;;21.07;17.30;;;;;;;;;;5071694;28;20653;-60
2023/03/21 11:11:36;;;;;;;20.43;16.10;;;;;;;;;;5071561;28;20687;-59
2023/03/21 11:14:05;;;;;;;20.20;16.50;;;;;;;;;;5071721;28;20614;-59
2023/03/21 11:16:35;;;;;;;21.07;16.07;;;;;;;;;;5071648;28;20207;-59
2023/03/21 11:19:02;;;;;;;21.00;15.90;;;;;;;;;;5071608;28;20201;-60
2023/03/21 11:21:34;;;;;;;22.77;16.50;;;;;;;;;;5073966;28;20623;-60
2023/03/21 11:24:02;;;;;;;19.37;15.60;;;;;;;;;;5075529;28;20206;-59
2023/03/21 11:26:31;;;;;;;17.77;15.97;;;;;;;;;;5075548;28;20282;-60
2023/03/21 11:28:57;;;;;;;20.73;15.83;;;;;;;;;;5075642;28;20223;-60
2023/03/21 11:31:37;;;;;;;21.67;15.27;;;;;;;;;;5074838;28;20192;-59
2023/03/21 11:34:05;;;;;;;18.77;15.33;;;;;;;;;;5075302;28;20210;-59
2023/03/21 11:36:33;;;;;;;17.97;14.70;;;;;;;;;;5075345;28;20206;-58
2023/03/21 11:39:12;;;;;;;16.70;14.90;;;;;;;;;;5075350;28;20208;-59
2023/03/21 11:41:39;;;;;;;19.77;16.13;;;;;;;;;;5075110;28;20219;-59
2023/03/21 11:44:05;;;;;;;17.47;15.10;;;;;;;;;;5075115;28;20501;-59
2023/03/21 11:46:32;;;;;;;20.77;15.43;;;;;;;;;;5074966;28;20743;-60
2023/03/21 11:48:58;;;;;;;16.50;14.73;;;;;;;;;;5074946;28;20188;-59
2023/03/21 11:51:28;;;;;;;19.13;14.60;;;;;;;;;;5075042;28;20245;-58
2023/03/21 11:54:01;;;;;;;17.80;14.40;;;;;;;;;;5075129;28;20723;-60
2023/03/21 11:56:28;;;;;;;19.13;15.27;;;;;;;;;;5074830;28;20757;-59
2023/03/21 11:59:09;;;;;;;18.97;14.47;;;;;;;;;;5075078;28;20290;-59
2023/03/21 12:01:38;;;;;;;19.80;14.60;;;;;;;;;;5072407;28;20227;-59
2023/03/21 12:04:17;;;;;;;19.27;14.03;;;;;;;;;;5074881;28;20203;-59
2023/03/21 12:06:46;;;;;;;20.07;14.10;;;;;;;;;;5074680;28;20677;-60
2023/03/21 12:09:19;;;;;;;19.00;14.23;;;;;;;;;;5074670;28;20199;-60
2023/03/21 12:11:51;;;;;;;19.47;14.10;;;;;;;;;;5074599;28;20314;-60
2023/03/21 12:14:20;;;;;;;19.20;13.90;;;;;;;;;;5074767;28;20195;-59
2023/03/21 12:16:53;;;;;;;19.07;13.10;;;;;;;;;;5074577;28;20207;-59
2023/03/21 12:19:37;;;;;;;16.87;13.37;;;;;;;;;;5074618;28;20199;-59
2023/03/21 12:22:05;;;;;;;18.33;13.23;;;;;;;;;;5043487;28;20227;-58
2023/03/21 12:24:35;;;;;;;17.97;13.40;;;;;;;;;;5074467;28;20195;-59
2023/03/21 12:27:08;;;;;;;21.73;14.43;;;;;;;;;;5074534;28;20725;-59
2023/03/21 12:29:44;;;;;;;16.80;12.73;;;;;;;;;;5074379;28;20219;-59
2023/03/21 12:32:14;;;;;;;21.17;13.20;;;;;;;;;;5073756;28;20206;-60
2023/03/21 12:34:54;;;;;;;19.50;12.97;;;;;;;;;;5074232;28;20227;-59
2023/03/21 12:37:25;;;;;;;20.83;13.13;;;;;;;;;;5073900;28;20195;-59
2023/03/21 12:39:54;;;;;;;20.10;13.67;;;;;;;;;;5074235;28;20198;-60
2023/03/21 12:42:34;;;;;;;18.40;13.17;;;;;;;;;;5073537;28;20238;-60
2023/03/21 12:45:03;;;;;;;15.10;12.33;;;;;;;;;;5073862;28;20286;-60
2023/03/21 12:47:31;;;;;;;16.57;12.17;;;;;;;;;;5073727;28;20225;-60
2023/03/21 12:50:00;;;;;;;15.07;12.47;;;;;;;;;;5073627;28;20199;-60
2023/03/21 12:52:27;;;;;;;15.07;11.50;;;;;;;;;;5073902;28;20262;-60
2023/03/21 12:54:57;;;;;;;14.77;11.00;;;;;;;;;;5073864;28;20203;-59
2023/03/21 12:57:25;;;;;;;15.73;11.07;;;;;;;;;;5073708;28;20211;-59
2023/03/21 12:59:55;;;;;;;14.43;11.97;;;;;;;;;;5073591;28;20215;-58
2023/03/21 13:02:25;;;;;;;12.23;11.00;;;;;;;;;;5073793;28;20258;-60
2023/03/21 13:04:56;;;;;;;14.40;10.73;;;;;;;;;;5073497;28;20448;-59
2023/03/21 13:07:24;;;;;;;20.27;12.00;;;;;;;;;;5073462;28;20693;-59
2023/03/21 13:09:52;;;;;;;13.40;10.17;;;;;;;;;;5073348;28;20742;-59
2023/03/21 13:12:25;;;;;;;14.20;11.43;;;;;;;;;;5073391;28;20222;-59
2023/03/21 13:15:05;;;;;;;13.93;10.67;;;;;;;;;;5073499;28;20231;-59
2023/03/21 13:17:35;;;;;;;12.93;10.60;;;;;;;;;;5073121;28;20589;-59
2023/03/21 13:20:06;;;;;;;13.80;11.07;;;;;;;;;;5073071;28;20614;-58
2023/03/21 13:22:32;;;;;;;15.50;11.40;;;;;;;;;;5073093;28;20227;-59
2023/03/21 13:25:03;;;;;;;14.17;10.70;;;;;;;;;;5073148;28;20200;-58
2023/03/21 13:27:31;;;;;;;12.83;10.73;;;;;;;;;;5072954;28;20203;-59
2023/03/21 13:29:59;;;;;;;14.07;11.43;;;;;;;;;;5073055;28;20206;-59
2023/03/21 13:32:29;;;;;;;14.07;11.67;;;;;;;;;;5073145;28;20253;-59
2023/03/21 13:34:56;;;;;;;14.30;11.47;;;;;;;;;;5072824;28;20199;-59
2023/03/21 13:37:24;;;;;;;15.10;11.17;;;;;;;;;;5072758;28;20199;-59
2023/03/21 13:39:50;;;;;;;17.93;12.37;;;;;;;;;;5072729;28;20303;-59
2023/03/21 13:42:20;;;;;;;13.67;11.67;;;;;;;;;;5072835;28;20231;-58
2023/03/21 13:44:49;;;;;;;13.60;10.97;;;;;;;;;;5072013;28;20234;-58
2023/03/21 13:47:36;;;;;;;14.90;12.57;;;;;;;;;;5072520;28;20668;-59
2023/03/21 13:50:15;;;;;;;15.33;11.50;;;;;;;;;;5046732;28;20579;-59
2023/03/21 13:52:41;;;;;;;16.57;12.33;;;;;;;;;;5072660;28;20210;-58
2023/03/21 13:55:15;;;;;;;16.43;12.00;;;;;;;;;;5072781;28;20304;-60
2023/03/21 13:57:41;;;;;;;16.17;12.57;;;;;;;;;;5072505;28;20204;-58
2023/03/21 14:00:16;;;;;;;15.70;12.73;;;;;;;;;;5072553;28;20230;-58
2023/03/21 14:02:51;;;;;;;19.47;13.17;;;;;;;;;;5072199;28;20249;-58
2023/03/21 14:05:32;;;;;;;17.90;13.57;;;;;;;;;;5089095;27;20515;-59
2023/03/21 14:08:00;;;;;;;16.77;12.40;;;;;;;;;;5089241;28;20207;-59
2023/03/21 14:10:29;;;;;;;17.70;12.90;;;;;;;;;;5089078;28;20234;-60
2023/03/21 14:12:55;;;;;;;20.20;14.57;;;;;;;;;;5089168;28;20203;-59
2023/03/21 14:15:23;;;;;;;16.43;13.13;;;;;;;;;;5089021;28;20539;-58
2023/03/21 14:17:49;;;;;;;14.77;11.87;;;;;;;;;;5088873;28;20240;-59
2023/03/21 14:20:18;;;;;;;18.97;13.03;;;;;;;;;;5088815;28;20205;-59
2023/03/21 14:22:47;;;;;;;15.90;11.43;;;;;;;;;;5088867;28;20210;-59